sensor_id;sensor_type;location;lat;lon;timestamp;P1;durP1;ratioP1;P2;durP2;ratioP2
18013;SDS011;9132;47.946;10.394;2023-03-21T00:00:35;5.43;;;4.60;;
18013;SDS011;9132;47.946;10.394;2023-03-21T00:03:01;5.03;;;4.23;;
18013;SDS011;9132;47.946;10.394;2023-03-21T00:05:29;4.77;;;4.30;;
18013;SDS011;9132;47.946;10.394;2023-03-21T00:07:55;5.80;;;4.50;;
18013;SDS011;9132;47.946;10.394;2023-03-21T00:10:22;4.80;;;4.30;;
18013;SDS011;9132;47.946;10.394;2023-03-21T00:12:48;5.07;;;4.57;;
18013;SDS011;9132;47.946;10.394;2023-03-21T00:15:19;5.67;;;4.73;;
18013;SDS011;9132;47.946;10.394;2023-03-21T00:17:45;4.40;;;4.00;;
18013;SDS011;9132;47.946;10.394;2023-03-21T00:20:15;5.17;;;4.53;;
18013;SDS011;9132;47.946;10.394;2023-03-21T00:22:42;6.73;;;4.47;;
18013;SDS011;9132;47.946;10.394;2023-03-21T00:25:09;7.93;;;4.83;;
18013;SDS011;9132;47.946;10.394;2023-03-21T00:27:35;5.30;;;4.80;;
18013;SDS011;9132;47.946;10.394;2023-03-21T00:30:02;5.87;;;5.20;;
18013;SDS011;9132;47.946;10.394;2023-03-21T00:32:28;4.87;;;4.47;;
18013;SDS011;9132;47.946;10.394;2023-03-21T00:34:54;5.93;;;4.60;;
18013;SDS011;9132;47.946;10.394;2023-03-21T00:37:21;6.87;;;5.47;;
18013;SDS011;9132;47.946;10.394;2023-03-21T00:39:48;7.87;;;5.50;;
18013;SDS011;9132;47.946;10.394;2023-03-21T00:42:15;11.33;;;5.97;;
18013;SDS011;9132;47.946;10.394;2023-03-21T00:44:41;7.50;;;5.60;;
18013;SDS011;9132;47.946;10.394;2023-03-21T00:47:09;6.90;;;5.10;;
18013;SDS011;9132;47.946;10.394;2023-03-21T00:49:36;6.20;;;5.10;;
18013;SDS011;9132;47.946;10.394;2023-03-21T00:52:03;6.73;;;5.27;;
18013;SDS011;9132;47.946;10.394;2023-03-21T00:54:30;4.73;;;4.33;;
18013;SDS011;9132;47.946;10.394;2023-03-21T00:56:58;5.40;;;4.73;;
18013;SDS011;9132;47.946;10.394;2023-03-21T00:59:25;5.60;;;4.53;;
18013;SDS011;9132;47.946;10.394;2023-03-21T01:01:51;5.47;;;4.83;;
18013;SDS011;9132;47.946;10.394;2023-03-21T01:04:18;6.77;;;5.10;;
18013;SDS011;9132;47.946;10.394;2023-03-21T01:06:45;5.33;;;4.63;;
18013;SDS011;9132;47.946;10.394;2023-03-21T01:09:13;5.90;;;5.30;;
18013;SDS011;9132;47.946;10.394;2023-03-21T01:11:39;4.63;;;4.17;;
18013;SDS011;9132;47.946;10.394;2023-03-21T01:14:08;5.30;;;4.60;;
18013;SDS011;9132;47.946;10.394;2023-03-21T01:16:34;5.10;;;4.57;;
18013;SDS011;9132;47.946;10.394;2023-03-21T01:19:01;5.50;;;4.63;;
18013;SDS011;9132;47.946;10.394;2023-03-21T01:21:27;4.90;;;4.40;;
18013;SDS011;9132;47.946;10.394;2023-03-21T01:23:54;5.17;;;4.67;;
18013;SDS011;9132;47.946;10.394;2023-03-21T01:26:20;6.00;;;5.07;;
18013;SDS011;9132;47.946;10.394;2023-03-21T01:28:46;6.10;;;5.10;;
18013;SDS011;9132;47.946;10.394;2023-03-21T01:31:15;4.87;;;4.37;;
18013;SDS011;9132;47.946;10.394;2023-03-21T01:33:42;5.20;;;4.70;;
18013;SDS011;9132;47.946;10.394;2023-03-21T01:36:08;6.33;;;4.83;;
18013;SDS011;9132;47.946;10.394;2023-03-21T01:38:39;5.93;;;4.43;;
18013;SDS011;9132;47.946;10.394;2023-03-21T01:41:05;6.80;;;4.50;;
18013;SDS011;9132;47.946;10.394;2023-03-21T01:43:32;6.53;;;4.30;;
18013;SDS011;9132;47.946;10.394;2023-03-21T01:48:49;4.90;;;4.40;;
18013;SDS011;9132;47.946;10.394;2023-03-21T01:51:16;6.73;;;4.83;;
18013;SDS011;9132;47.946;10.394;2023-03-21T01:53:43;4.83;;;4.43;;
18013;SDS011;9132;47.946;10.394;2023-03-21T01:56:10;5.47;;;4.37;;
18013;SDS011;9132;47.946;10.394;2023-03-21T01:58:37;4.97;;;4.37;;
18013;SDS011;9132;47.946;10.394;2023-03-21T02:01:05;5.20;;;4.30;;
18013;SDS011;9132;47.946;10.394;2023-03-21T02:03:32;6.20;;;4.77;;
18013;SDS011;9132;47.946;10.394;2023-03-21T02:06:06;6.23;;;4.50;;
18013;SDS011;9132;47.946;10.394;2023-03-21T02:08:34;4.23;;;3.80;;
18013;SDS011;9132;47.946;10.394;2023-03-21T02:11:01;5.40;;;4.90;;
18013;SDS011;9132;47.946;10.394;2023-03-21T02:13:28;5.53;;;4.50;;
18013;SDS011;9132;47.946;10.394;2023-03-21T02:15:56;5.47;;;4.60;;
18013;SDS011;9132;47.946;10.394;2023-03-21T02:18:23;5.97;;;4.50;;
18013;SDS011;9132;47.946;10.394;2023-03-21T02:21:03;5.73;;;4.50;;
18013;SDS011;9132;47.946;10.394;2023-03-21T02:23:53;4.60;;;4.20;;
18013;SDS011;9132;47.946;10.394;2023-03-21T02:26:32;4.63;;;3.80;;
18013;SDS011;9132;47.946;10.394;2023-03-21T02:29:03;5.33;;;4.33;;
18013;SDS011;9132;47.946;10.394;2023-03-21T02:31:37;5.43;;;4.63;;
18013;SDS011;9132;47.946;10.394;2023-03-21T02:39:35;4.03;;;3.73;;
18013;SDS011;9132;47.946;10.394;2023-03-21T02:42:06;5.57;;;4.47;;
18013;SDS011;9132;47.946;10.394;2023-03-21T02:44:34;5.67;;;4.30;;
18013;SDS011;9132;47.946;10.394;2023-03-21T02:47:05;5.03;;;4.53;;
18013;SDS011;9132;47.946;10.394;2023-03-21T02:49:33;5.60;;;4.50;;
18013;SDS011;9132;47.946;10.394;2023-03-21T02:52:02;5.03;;;4.13;;
18013;SDS011;9132;47.946;10.394;2023-03-21T02:54:30;4.50;;;4.10;;
18013;SDS011;9132;47.946;10.394;2023-03-21T02:56:58;5.37;;;4.87;;
18013;SDS011;9132;47.946;10.394;2023-03-21T02:59:26;4.70;;;4.30;;
18013;SDS011;9132;47.946;10.394;2023-03-21T03:01:53;5.57;;;4.83;;
18013;SDS011;9132;47.946;10.394;2023-03-21T03:04:20;4.73;;;4.33;;
18013;SDS011;9132;47.946;10.394;2023-03-21T03:06:51;5.47;;;4.70;;
18013;SDS011;9132;47.946;10.394;2023-03-21T03:09:23;5.40;;;4.87;;
18013;SDS011;9132;47.946;10.394;2023-03-21T03:11:53;4.80;;;4.17;;
18013;SDS011;9132;47.946;10.394;2023-03-21T03:17:08;4.63;;;3.97;;
18013;SDS011;9132;47.946;10.394;2023-03-21T03:19:40;5.27;;;4.77;;
18013;SDS011;9132;47.946;10.394;2023-03-21T03:22:11;5.40;;;4.60;;
18013;SDS011;9132;47.946;10.394;2023-03-21T03:24:40;5.60;;;4.10;;
18013;SDS011;9132;47.946;10.394;2023-03-21T03:27:08;4.57;;;4.17;;
18013;SDS011;9132;47.946;10.394;2023-03-21T03:29:36;4.20;;;3.80;;
18013;SDS011;9132;47.946;10.394;2023-03-21T03:32:04;5.37;;;4.20;;
18013;SDS011;9132;47.946;10.394;2023-03-21T03:34:34;4.83;;;4.37;;
18013;SDS011;9132;47.946;10.394;2023-03-21T03:37:03;4.63;;;4.23;;
18013;SDS011;9132;47.946;10.394;2023-03-21T03:39:32;5.43;;;3.90;;
18013;SDS011;9132;47.946;10.394;2023-03-21T03:42:01;5.20;;;4.17;;
18013;SDS011;9132;47.946;10.394;2023-03-21T03:44:28;6.13;;;4.47;;
18013;SDS011;9132;47.946;10.394;2023-03-21T03:46:55;4.47;;;4.07;;
18013;SDS011;9132;47.946;10.394;2023-03-21T03:49:23;5.30;;;4.07;;
18013;SDS011;9132;47.946;10.394;2023-03-21T03:51:53;4.50;;;4.10;;
18013;SDS011;9132;47.946;10.394;2023-03-21T03:54:21;5.27;;;3.83;;
18013;SDS011;9132;47.946;10.394;2023-03-21T03:56:48;4.73;;;4.30;;
18013;SDS011;9132;47.946;10.394;2023-03-21T03:59:15;6.37;;;4.10;;
18013;SDS011;9132;47.946;10.394;2023-03-21T04:01:43;7.77;;;4.43;;
18013;SDS011;9132;47.946;10.394;2023-03-21T04:04:09;5.47;;;3.83;;
18013;SDS011;9132;47.946;10.394;2023-03-21T04:06:37;5.00;;;4.50;;
18013;SDS011;9132;47.946;10.394;2023-03-21T04:09:05;5.33;;;4.30;;
18013;SDS011;9132;47.946;10.394;2023-03-21T04:11:32;4.57;;;4.03;;
18013;SDS011;9132;47.946;10.394;2023-03-21T04:13:58;4.83;;;4.03;;
18013;SDS011;9132;47.946;10.394;2023-03-21T04:16:25;4.70;;;4.20;;
18013;SDS011;9132;47.946;10.394;2023-03-21T04:18:52;5.10;;;4.50;;
18013;SDS011;9132;47.946;10.394;2023-03-21T04:21:18;4.60;;;4.20;;
18013;SDS011;9132;47.946;10.394;2023-03-21T04:23:45;4.87;;;3.60;;
18013;SDS011;9132;47.946;10.394;2023-03-21T04:26:13;4.67;;;4.27;;
18013;SDS011;9132;47.946;10.394;2023-03-21T04:28:39;6.47;;;4.93;;
18013;SDS011;9132;47.946;10.394;2023-03-21T04:31:06;7.13;;;4.50;;
18013;SDS011;9132;47.946;10.394;2023-03-21T04:33:33;5.07;;;3.60;;
18013;SDS011;9132;47.946;10.394;2023-03-21T04:36:02;4.97;;;4.00;;
18013;SDS011;9132;47.946;10.394;2023-03-21T04:38:30;4.17;;;3.77;;
18013;SDS011;9132;47.946;10.394;2023-03-21T04:40:57;4.07;;;3.63;;
18013;SDS011;9132;47.946;10.394;2023-03-21T04:43:25;4.40;;;4.00;;
18013;SDS011;9132;47.946;10.394;2023-03-21T04:45:52;6.27;;;4.00;;
18013;SDS011;9132;47.946;10.394;2023-03-21T04:48:18;4.33;;;3.70;;
18013;SDS011;9132;47.946;10.394;2023-03-21T04:50:48;4.87;;;4.07;;
18013;SDS011;9132;47.946;10.394;2023-03-21T04:53:14;4.53;;;3.67;;
18013;SDS011;9132;47.946;10.394;2023-03-21T04:55:41;4.20;;;3.80;;
18013;SDS011;9132;47.946;10.394;2023-03-21T04:58:07;4.67;;;4.20;;
18013;SDS011;9132;47.946;10.394;2023-03-21T05:00:35;4.47;;;4.07;;
18013;SDS011;9132;47.946;10.394;2023-03-21T05:03:02;4.63;;;4.07;;
18013;SDS011;9132;47.946;10.394;2023-03-21T05:05:29;4.60;;;3.63;;
18013;SDS011;9132;47.946;10.394;2023-03-21T05:07:55;4.20;;;3.80;;
18013;SDS011;9132;47.946;10.394;2023-03-21T05:10:22;4.93;;;4.20;;
18013;SDS011;9132;47.946;10.394;2023-03-21T05:12:48;4.10;;;3.70;;
18013;SDS011;9132;47.946;10.394;2023-03-21T05:15:14;4.20;;;3.80;;
18013;SDS011;9132;47.946;10.394;2023-03-21T05:17:42;4.27;;;3.80;;
18013;SDS011;9132;47.946;10.394;2023-03-21T05:20:09;4.37;;;3.97;;
18013;SDS011;9132;47.946;10.394;2023-03-21T05:22:35;4.03;;;3.73;;
18013;SDS011;9132;47.946;10.394;2023-03-21T05:25:05;4.30;;;3.80;;
18013;SDS011;9132;47.946;10.394;2023-03-21T05:27:32;6.03;;;4.40;;
18013;SDS011;9132;47.946;10.394;2023-03-21T05:30:05;5.20;;;4.37;;
18013;SDS011;9132;47.946;10.394;2023-03-21T05:32:31;4.83;;;4.03;;
18013;SDS011;9132;47.946;10.394;2023-03-21T05:34:59;4.53;;;3.90;;
18013;SDS011;9132;47.946;10.394;2023-03-21T05:37:25;4.50;;;4.10;;
18013;SDS011;9132;47.946;10.394;2023-03-21T05:39:52;4.47;;;4.00;;
18013;SDS011;9132;47.946;10.394;2023-03-21T05:42:18;4.63;;;4.03;;
18013;SDS011;9132;47.946;10.394;2023-03-21T05:44:45;4.63;;;3.83;;
18013;SDS011;9132;47.946;10.394;2023-03-21T05:47:12;6.03;;;4.07;;
18013;SDS011;9132;47.946;10.394;2023-03-21T05:49:38;5.53;;;3.77;;
18013;SDS011;9132;47.946;10.394;2023-03-21T05:52:06;4.53;;;3.80;;
18013;SDS011;9132;47.946;10.394;2023-03-21T05:54:32;4.97;;;4.00;;
18013;SDS011;9132;47.946;10.394;2023-03-21T05:56:59;4.83;;;3.77;;
18013;SDS011;9132;47.946;10.394;2023-03-21T05:59:25;4.03;;;3.73;;
18013;SDS011;9132;47.946;10.394;2023-03-21T06:01:51;4.70;;;4.00;;
18013;SDS011;9132;47.946;10.394;2023-03-21T06:04:18;4.07;;;3.67;;
18013;SDS011;9132;47.946;10.394;2023-03-21T06:06:44;4.33;;;3.93;;
18013;SDS011;9132;47.946;10.394;2023-03-21T06:09:12;4.00;;;3.67;;
18013;SDS011;9132;47.946;10.394;2023-03-21T06:11:39;4.30;;;3.50;;
18013;SDS011;9132;47.946;10.394;2023-03-21T06:14:08;4.73;;;3.50;;
18013;SDS011;9132;47.946;10.394;2023-03-21T06:16:34;4.30;;;3.90;;
18013;SDS011;9132;47.946;10.394;2023-03-21T06:19:01;5.27;;;3.67;;
18013;SDS011;9132;47.946;10.394;2023-03-21T06:21:27;4.07;;;3.67;;
18013;SDS011;9132;47.946;10.394;2023-03-21T06:23:53;4.37;;;4.00;;
18013;SDS011;9132;47.946;10.394;2023-03-21T06:26:21;6.40;;;4.00;;
18013;SDS011;9132;47.946;10.394;2023-03-21T06:28:47;5.50;;;5.00;;
18013;SDS011;9132;47.946;10.394;2023-03-21T06:31:14;5.80;;;4.20;;
18013;SDS011;9132;47.946;10.394;2023-03-21T06:33:40;6.40;;;4.07;;
18013;SDS011;9132;47.946;10.394;2023-03-21T06:36:07;4.87;;;3.43;;
18013;SDS011;9132;47.946;10.394;2023-03-21T06:38:33;5.23;;;3.40;;
18013;SDS011;9132;47.946;10.394;2023-03-21T06:41:02;6.50;;;3.50;;
18013;SDS011;9132;47.946;10.394;2023-03-21T06:43:30;5.37;;;3.80;;
18013;SDS011;9132;47.946;10.394;2023-03-21T06:45:56;5.20;;;3.77;;
18013;SDS011;9132;47.946;10.394;2023-03-21T06:48:23;8.80;;;5.57;;
18013;SDS011;9132;47.946;10.394;2023-03-21T06:50:49;5.70;;;4.47;;
18013;SDS011;9132;47.946;10.394;2023-03-21T06:53:16;5.67;;;3.33;;
18013;SDS011;9132;47.946;10.394;2023-03-21T06:55:47;6.40;;;4.00;;
18013;SDS011;9132;47.946;10.394;2023-03-21T06:58:14;3.73;;;3.43;;
18013;SDS011;9132;47.946;10.394;2023-03-21T07:00:41;3.90;;;3.50;;
18013;SDS011;9132;47.946;10.394;2023-03-21T07:03:08;5.50;;;3.43;;
18013;SDS011;9132;47.946;10.394;2023-03-21T07:05:35;9.27;;;3.87;;
18013;SDS011;9132;47.946;10.394;2023-03-21T07:08:02;4.00;;;3.60;;
18013;SDS011;9132;47.946;10.394;2023-03-21T07:10:28;4.40;;;3.87;;
18013;SDS011;9132;47.946;10.394;2023-03-21T07:12:54;6.13;;;3.60;;
18013;SDS011;9132;47.946;10.394;2023-03-21T07:15:21;4.50;;;3.47;;
18013;SDS011;9132;47.946;10.394;2023-03-21T07:17:48;4.27;;;3.03;;
18013;SDS011;9132;47.946;10.394;2023-03-21T07:20:15;4.37;;;3.83;;
18013;SDS011;9132;47.946;10.394;2023-03-21T07:22:41;9.27;;;4.37;;
18013;SDS011;9132;47.946;10.394;2023-03-21T07:25:08;5.53;;;4.33;;
18013;SDS011;9132;47.946;10.394;2023-03-21T07:27:34;6.17;;;4.00;;
18013;SDS011;9132;47.946;10.394;2023-03-21T07:30:01;6.47;;;3.90;;
18013;SDS011;9132;47.946;10.394;2023-03-21T07:32:30;5.70;;;3.70;;
18013;SDS011;9132;47.946;10.394;2023-03-21T07:34:59;3.77;;;3.37;;
18013;SDS011;9132;47.946;10.394;2023-03-21T07:37:25;3.97;;;3.20;;
18013;SDS011;9132;47.946;10.394;2023-03-21T07:39:52;3.23;;;2.93;;
18013;SDS011;9132;47.946;10.394;2023-03-21T07:42:18;3.47;;;3.17;;
18013;SDS011;9132;47.946;10.394;2023-03-21T07:44:44;3.60;;;3.20;;
18013;SDS011;9132;47.946;10.394;2023-03-21T07:47:11;5.93;;;3.70;;
18013;SDS011;9132;47.946;10.394;2023-03-21T07:49:37;6.70;;;3.60;;
18013;SDS011;9132;47.946;10.394;2023-03-21T07:52:05;4.80;;;3.50;;
18013;SDS011;9132;47.946;10.394;2023-03-21T07:54:31;8.77;;;3.87;;
18013;SDS011;9132;47.946;10.394;2023-03-21T07:56:58;4.13;;;3.73;;
18013;SDS011;9132;47.946;10.394;2023-03-21T07:59:24;5.77;;;3.60;;
18013;SDS011;9132;47.946;10.394;2023-03-21T08:01:51;5.73;;;4.00;;
18013;SDS011;9132;47.946;10.394;2023-03-21T08:04:17;4.70;;;4.30;;
18013;SDS011;9132;47.946;10.394;2023-03-21T08:06:43;4.83;;;4.30;;
18013;SDS011;9132;47.946;10.394;2023-03-21T08:09:11;5.93;;;4.93;;
18013;SDS011;9132;47.946;10.394;2023-03-21T08:11:38;5.50;;;4.27;;
18013;SDS011;9132;47.946;10.394;2023-03-21T08:14:05;5.27;;;4.77;;
18013;SDS011;9132;47.946;10.394;2023-03-21T08:16:31;7.73;;;4.53;;
18013;SDS011;9132;47.946;10.394;2023-03-21T08:18:57;5.43;;;4.40;;
18013;SDS011;9132;47.946;10.394;2023-03-21T08:21:24;4.50;;;4.07;;
18013;SDS011;9132;47.946;10.394;2023-03-21T08:23:51;5.07;;;4.17;;
18013;SDS011;9132;47.946;10.394;2023-03-21T08:26:19;6.30;;;4.87;;
18013;SDS011;9132;47.946;10.394;2023-03-21T08:28:45;5.20;;;4.70;;
18013;SDS011;9132;47.946;10.394;2023-03-21T08:31:11;5.57;;;4.97;;
18013;SDS011;9132;47.946;10.394;2023-03-21T08:33:38;5.80;;;4.27;;
18013;SDS011;9132;47.946;10.394;2023-03-21T08:36:05;5.77;;;4.70;;
18013;SDS011;9132;47.946;10.394;2023-03-21T08:38:31;7.00;;;4.97;;
18013;SDS011;9132;47.946;10.394;2023-03-21T08:40:58;5.90;;;5.00;;
18013;SDS011;9132;47.946;10.394;2023-03-21T08:43:26;7.13;;;5.07;;
18013;SDS011;9132;47.946;10.394;2023-03-21T08:45:52;8.87;;;5.27;;
18013;SDS011;9132;47.946;10.394;2023-03-21T08:48:19;5.30;;;4.80;;
18013;SDS011;9132;47.946;10.394;2023-03-21T08:50:45;8.30;;;5.03;;
18013;SDS011;9132;47.946;10.394;2023-03-21T08:53:12;5.67;;;4.50;;
18013;SDS011;9132;47.946;10.394;2023-03-21T08:55:38;6.17;;;4.67;;
18013;SDS011;9132;47.946;10.394;2023-03-21T08:58:04;5.87;;;5.00;;
18013;SDS011;9132;47.946;10.394;2023-03-21T09:00:32;8.67;;;5.20;;
18013;SDS011;9132;47.946;10.394;2023-03-21T09:02:59;6.37;;;5.57;;
18013;SDS011;9132;47.946;10.394;2023-03-21T09:05:25;5.73;;;5.03;;
18013;SDS011;9132;47.946;10.394;2023-03-21T09:07:52;7.63;;;5.30;;
18013;SDS011;9132;47.946;10.394;2023-03-21T09:10:19;6.20;;;5.60;;
18013;SDS011;9132;47.946;10.394;2023-03-21T09:12:46;7.73;;;5.07;;
18013;SDS011;9132;47.946;10.394;2023-03-21T09:15:12;6.23;;;5.10;;
18013;SDS011;9132;47.946;10.394;2023-03-21T09:17:40;6.63;;;5.20;;
18013;SDS011;9132;47.946;10.394;2023-03-21T09:20:08;6.80;;;5.00;;
18013;SDS011;9132;47.946;10.394;2023-03-21T09:22:35;6.57;;;5.10;;
18013;SDS011;9132;47.946;10.394;2023-03-21T09:25:02;5.80;;;5.20;;
18013;SDS011;9132;47.946;10.394;2023-03-21T09:27:32;5.50;;;5.00;;
18013;SDS011;9132;47.946;10.394;2023-03-21T09:29:58;7.57;;;5.57;;
18013;SDS011;9132;47.946;10.394;2023-03-21T09:32:25;5.87;;;5.27;;
18013;SDS011;9132;47.946;10.394;2023-03-21T09:34:53;5.27;;;4.77;;
18013;SDS011;9132;47.946;10.394;2023-03-21T09:37:21;7.23;;;5.67;;
18013;SDS011;9132;47.946;10.394;2023-03-21T09:39:47;6.60;;;5.90;;
18013;SDS011;9132;47.946;10.394;2023-03-21T09:42:18;6.57;;;5.37;;
18013;SDS011;9132;47.946;10.394;2023-03-21T09:44:49;6.97;;;5.43;;
18013;SDS011;9132;47.946;10.394;2023-03-21T09:47:19;6.43;;;5.63;;
18013;SDS011;9132;47.946;10.394;2023-03-21T09:49:49;7.60;;;5.57;;
18013;SDS011;9132;47.946;10.394;2023-03-21T09:52:21;6.30;;;5.70;;
18013;SDS011;9132;47.946;10.394;2023-03-21T09:54:49;6.53;;;5.70;;
18013;SDS011;9132;47.946;10.394;2023-03-21T09:57:19;6.80;;;5.90;;
18013;SDS011;9132;47.946;10.394;2023-03-21T09:59:47;8.73;;;5.40;;
18013;SDS011;9132;47.946;10.394;2023-03-21T10:02:20;6.73;;;6.03;;
18013;SDS011;9132;47.946;10.394;2023-03-21T10:04:56;6.97;;;5.83;;
18013;SDS011;9132;47.946;10.394;2023-03-21T10:07:24;5.37;;;4.77;;
18013;SDS011;9132;47.946;10.394;2023-03-21T10:09:52;6.17;;;5.57;;
18013;SDS011;9132;47.946;10.394;2023-03-21T10:12:19;7.87;;;5.80;;
18013;SDS011;9132;47.946;10.394;2023-03-21T10:14:47;6.33;;;5.27;;
18013;SDS011;9132;47.946;10.394;2023-03-21T10:17:16;5.83;;;5.33;;
18013;SDS011;9132;47.946;10.394;2023-03-21T10:19:45;5.53;;;5.03;;
18013;SDS011;9132;47.946;10.394;2023-03-21T10:22:12;6.23;;;5.03;;
18013;SDS011;9132;47.946;10.394;2023-03-21T10:24:39;5.27;;;4.60;;
18013;SDS011;9132;47.946;10.394;2023-03-21T10:27:06;4.70;;;4.30;;
18013;SDS011;9132;47.946;10.394;2023-03-21T10:29:36;5.03;;;4.40;;
18013;SDS011;9132;47.946;10.394;2023-03-21T10:32:02;4.87;;;4.23;;
18013;SDS011;9132;47.946;10.394;2023-03-21T10:34:29;6.33;;;4.60;;
18013;SDS011;9132;47.946;10.394;2023-03-21T10:36:57;6.67;;;4.30;;
18013;SDS011;9132;47.946;10.394;2023-03-21T10:39:25;4.37;;;3.80;;
18013;SDS011;9132;47.946;10.394;2023-03-21T10:41:53;5.10;;;4.13;;
18013;SDS011;9132;47.946;10.394;2023-03-21T10:44:20;4.47;;;3.93;;
18013;SDS011;9132;47.946;10.394;2023-03-21T10:46:50;4.43;;;4.03;;
18013;SDS011;9132;47.946;10.394;2023-03-21T10:49:16;4.70;;;4.20;;
18013;SDS011;9132;47.946;10.394;2023-03-21T10:51:45;4.67;;;4.17;;
18013;SDS011;9132;47.946;10.394;2023-03-21T10:54:13;4.40;;;4.00;;
18013;SDS011;9132;47.946;10.394;2023-03-21T10:56:42;4.60;;;4.20;;
18013;SDS011;9132;47.946;10.394;2023-03-21T10:59:11;6.53;;;5.47;;
18013;SDS011;9132;47.946;10.394;2023-03-21T11:01:42;5.37;;;4.87;;
18013;SDS011;9132;47.946;10.394;2023-03-21T11:04:11;5.90;;;5.30;;
18013;SDS011;9132;47.946;10.394;2023-03-21T11:06:40;7.37;;;5.30;;
18013;SDS011;9132;47.946;10.394;2023-03-21T11:09:08;4.90;;;4.40;;
18013;SDS011;9132;47.946;10.394;2023-03-21T11:11:37;4.70;;;4.30;;
18013;SDS011;9132;47.946;10.394;2023-03-21T11:14:05;5.30;;;4.07;;
18013;SDS011;9132;47.946;10.394;2023-03-21T11:16:36;5.13;;;4.13;;
18013;SDS011;9132;47.946;10.394;2023-03-21T11:19:11;4.63;;;4.23;;
18013;SDS011;9132;47.946;10.394;2023-03-21T11:21:38;4.60;;;4.00;;
18013;SDS011;9132;47.946;10.394;2023-03-21T11:24:04;3.67;;;3.37;;
18013;SDS011;9132;47.946;10.394;2023-03-21T11:26:32;5.27;;;3.77;;
18013;SDS011;9132;47.946;10.394;2023-03-21T11:29:00;4.27;;;3.87;;
18013;SDS011;9132;47.946;10.394;2023-03-21T11:31:38;5.23;;;4.20;;
18013;SDS011;9132;47.946;10.394;2023-03-21T11:34:05;3.80;;;3.40;;
18013;SDS011;9132;47.946;10.394;2023-03-21T11:36:33;5.37;;;3.37;;
18013;SDS011;9132;47.946;10.394;2023-03-21T11:39:11;3.80;;;3.50;;
18013;SDS011;9132;47.946;10.394;2023-03-21T11:41:38;4.60;;;3.30;;
18013;SDS011;9132;47.946;10.394;2023-03-21T11:44:05;3.63;;;3.27;;
18013;SDS011;9132;47.946;10.394;2023-03-21T11:46:31;3.40;;;3.10;;
18013;SDS011;9132;47.946;10.394;2023-03-21T11:49:08;3.30;;;3.00;;
18013;SDS011;9132;47.946;10.394;2023-03-21T11:51:37;3.47;;;3.17;;
18013;SDS011;9132;47.946;10.394;2023-03-21T11:54:06;3.90;;;3.60;;
18013;SDS011;9132;47.946;10.394;2023-03-21T11:56:36;3.80;;;3.40;;
18013;SDS011;9132;47.946;10.394;2023-03-21T11:59:22;3.60;;;3.30;;
18013;SDS011;9132;47.946;10.394;2023-03-21T12:01:55;3.80;;;3.27;;
18013;SDS011;9132;47.946;10.394;2023-03-21T12:04:31;4.27;;;3.70;;
18013;SDS011;9132;47.946;10.394;2023-03-21T12:07:03;4.70;;;3.30;;
18013;SDS011;9132;47.946;10.394;2023-03-21T12:09:36;4.03;;;3.20;;
18013;SDS011;9132;47.946;10.394;2023-03-21T12:12:08;3.80;;;3.50;;
18013;SDS011;9132;47.946;10.394;2023-03-21T12:14:37;7.47;;;3.50;;
18013;SDS011;9132;47.946;10.394;2023-03-21T12:17:09;4.28;;;3.20;;
18013;SDS011;9132;47.946;10.394;2023-03-21T12:19:44;3.43;;;3.13;;
18013;SDS011;9132;47.946;10.394;2023-03-21T12:22:14;3.83;;;3.43;;
18013;SDS011;9132;47.946;10.394;2023-03-21T12:24:47;3.93;;;2.90;;
18013;SDS011;9132;47.946;10.394;2023-03-21T12:27:16;3.37;;;3.07;;
18013;SDS011;9132;47.946;10.394;2023-03-21T12:29:50;3.73;;;3.10;;
18013;SDS011;9132;47.946;10.394;2023-03-21T12:32:20;3.10;;;2.40;;
18013;SDS011;9132;47.946;10.394;2023-03-21T12:34:58;3.13;;;2.43;;
18013;SDS011;9132;47.946;10.394;2023-03-21T12:37:31;2.50;;;2.30;;
18013;SDS011;9132;47.946;10.394;2023-03-21T12:40:01;2.80;;;2.60;;
18013;SDS011;9132;47.946;10.394;2023-03-21T12:42:44;2.75;;;2.55;;
18013;SDS011;9132;47.946;10.394;2023-03-21T12:45:15;3.15;;;2.80;;
18013;SDS011;9132;47.946;10.394;2023-03-21T12:47:43;2.58;;;2.38;;
18013;SDS011;9132;47.946;10.394;2023-03-21T12:50:14;4.37;;;2.60;;
18013;SDS011;9132;47.946;10.394;2023-03-21T12:52:42;2.85;;;2.65;;
18013;SDS011;9132;47.946;10.394;2023-03-21T12:55:12;6.18;;;2.83;;
18013;SDS011;9132;47.946;10.394;2023-03-21T12:57:40;3.10;;;2.90;;
18013;SDS011;9132;47.946;10.394;2023-03-21T13:00:09;3.63;;;2.88;;
18013;SDS011;9132;47.946;10.394;2023-03-21T13:02:39;3.60;;;2.90;;
18013;SDS011;9132;47.946;10.394;2023-03-21T13:05:09;2.83;;;2.60;;
18013;SDS011;9132;47.946;10.394;2023-03-21T13:07:42;2.83;;;2.63;;
18013;SDS011;9132;47.946;10.394;2023-03-21T13:10:12;3.53;;;2.60;;
18013;SDS011;9132;47.946;10.394;2023-03-21T13:12:51;3.92;;;2.85;;
18013;SDS011;9132;47.946;10.394;2023-03-21T13:15:28;2.90;;;2.60;;
18013;SDS011;9132;47.946;10.394;2023-03-21T13:17:58;2.75;;;2.35;;
18013;SDS011;9132;47.946;10.394;2023-03-21T13:20:28;4.38;;;2.95;;
18013;SDS011;9132;47.946;10.394;2023-03-21T13:23:01;2.88;;;2.55;;
18013;SDS011;9132;47.946;10.394;2023-03-21T13:25:30;2.70;;;2.38;;
18013;SDS011;9132;47.946;10.394;2023-03-21T13:27:59;3.45;;;2.70;;
18013;SDS011;9132;47.946;10.394;2023-03-21T13:30:27;2.50;;;2.30;;
18013;SDS011;9132;47.946;10.394;2023-03-21T13:32:54;3.45;;;3.15;;
18013;SDS011;9132;47.946;10.394;2023-03-21T13:35:31;3.45;;;3.00;;
18013;SDS011;9132;47.946;10.394;2023-03-21T13:38:00;3.03;;;2.83;;
18013;SDS011;9132;47.946;10.394;2023-03-21T13:40:34;3.22;;;2.97;;
18013;SDS011;9132;47.946;10.394;2023-03-21T13:43:02;3.42;;;3.00;;
18013;SDS011;9132;47.946;10.394;2023-03-21T13:45:30;3.10;;;2.80;;
18013;SDS011;9132;47.946;10.394;2023-03-21T13:47:57;3.22;;;2.92;;
18013;SDS011;9132;47.946;10.394;2023-03-21T13:50:28;3.00;;;2.80;;
18013;SDS011;9132;47.946;10.394;2023-03-21T13:55:41;2.58;;;2.35;;
18013;SDS011;9132;47.946;10.394;2023-03-21T13:58:30;3.08;;;2.80;;
18013;SDS011;9132;47.946;10.394;2023-03-21T14:01:04;2.92;;;2.72;;
18013;SDS011;9132;47.946;10.394;2023-03-21T14:03:35;3.13;;;2.85;;
18013;SDS011;9132;47.946;10.394;2023-03-21T14:06:04;3.00;;;2.80;;
18013;SDS011;9132;47.946;10.394;2023-03-21T14:08:30;3.60;;;3.00;;
18013;SDS011;9132;47.946;10.394;2023-03-21T14:11:03;3.83;;;3.53;;
18013;SDS011;9132;47.946;10.394;2023-03-21T14:13:30;4.28;;;3.53;;
18013;SDS011;9132;47.946;10.394;2023-03-21T14:15:59;3.50;;;3.20;;
18013;SDS011;9132;47.946;10.394;2023-03-21T14:18:26;3.63;;;3.33;;
18013;SDS011;9132;47.946;10.394;2023-03-21T14:20:53;6.03;;;3.60;;
18013;SDS011;9132;47.946;10.394;2023-03-21T14:23:20;4.30;;;3.90;;
18013;SDS011;9132;47.946;10.394;2023-03-21T14:25:47;3.20;;;3.00;;
18013;SDS011;9132;47.946;10.394;2023-03-21T14:28:16;4.05;;;3.30;;
18013;SDS011;9132;47.946;10.394;2023-03-21T14:30:42;3.67;;;3.38;;
18013;SDS011;9132;47.946;10.394;2023-03-21T14:33:11;5.38;;;3.22;;
18013;SDS011;9132;47.946;10.394;2023-03-21T14:35:39;3.60;;;3.13;;
18013;SDS011;9132;47.946;10.394;2023-03-21T14:38:06;4.68;;;3.28;;
18013;SDS011;9132;47.946;10.394;2023-03-21T14:40:33;3.67;;;3.38;;
18013;SDS011;9132;47.946;10.394;2023-03-21T14:43:03;3.63;;;2.60;;
18013;SDS011;9132;47.946;10.394;2023-03-21T14:45:33;2.20;;;2.00;;
18013;SDS011;9132;47.946;10.394;2023-03-21T14:48:00;1.80;;;1.70;;
18013;SDS011;9132;47.946;10.394;2023-03-21T14:50:30;1.60;;;1.50;;
18013;SDS011;9132;47.946;10.394;2023-03-21T14:52:59;1.95;;;1.63;;
18013;SDS011;9132;47.946;10.394;2023-03-21T14:55:26;2.25;;;2.03;;
18013;SDS011;9132;47.946;10.394;2023-03-21T14:57:53;2.00;;;1.80;;
18013;SDS011;9132;47.946;10.394;2023-03-21T15:00:21;1.77;;;1.67;;
18013;SDS011;9132;47.946;10.394;2023-03-21T15:02:49;2.60;;;1.93;;
18013;SDS011;9132;47.946;10.394;2023-03-21T15:05:17;2.67;;;2.47;;
18013;SDS011;9132;47.946;10.394;2023-03-21T15:07:51;3.22;;;2.20;;